createdAt,value
2022-08-26T00:01:30.534Z,80.34
2022-08-26T00:03:57.093Z,81.40
2022-08-26T00:06:24.711Z,80.91
2022-08-26T00:08:51.802Z,80.36
2022-08-26T00:11:26.520Z,79.65
2022-08-26T00:13:54.668Z,80.40
2022-08-26T00:16:22.110Z,81.14
2022-08-26T00:18:48.647Z,80.21
2022-08-26T00:21:16.182Z,82.70
2022-08-26T00:23:42.718Z,80.81
2022-08-26T00:26:09.287Z,80.43
2022-08-26T00:28:37.844Z,80.68
2022-08-26T00:31:04.542Z,80.69
2022-08-26T00:33:33.466Z,81.38
2022-08-26T00:36:01.714Z,80.22
2022-08-26T00:38:29.043Z,81.21
2022-08-26T00:40:57.473Z,81.96
2022-08-26T00:43:25.249Z,80.85
2022-08-26T00:45:59.883Z,82.19
2022-08-26T00:48:31.716Z,82.08
2022-08-26T00:51:01.987Z,82.29
2022-08-26T00:53:30.894Z,81.38
2022-08-26T00:56:04.869Z,81.78
2022-08-26T00:58:34.098Z,82.24
2022-08-26T01:01:00.963Z,82.26
2022-08-26T01:03:29.160Z,82.01
2022-08-26T01:05:57.486Z,80.13
2022-08-26T01:08:24.767Z,80.13
2022-08-26T01:10:52.426Z,80.45
2022-08-26T01:13:23.120Z,80.70
2022-08-26T01:15:55.169Z,81.21
2022-08-26T01:18:22.475Z,81.65
2022-08-26T01:21:13.914Z,81.47
2022-08-26T01:23:45.021Z,81.18
2022-08-26T01:26:50.325Z,81.58
2022-08-26T01:29:19.144Z,81.46
2022-08-26T01:31:50.036Z,81.66
2022-08-26T01:34:25.338Z,82.32
2022-08-26T01:37:01.950Z,81.04
2022-08-26T01:39:29.188Z,80.79
2022-08-26T01:41:57.028Z,81.17
2022-08-26T01:44:26.289Z,81.00
2022-08-26T01:46:53.361Z,80.68
2022-08-26T01:49:21.009Z,81.27
2022-08-26T01:51:49.776Z,80.74
2022-08-26T01:54:16.888Z,81.92
2022-08-26T01:56:47.734Z,81.74
2022-08-26T01:59:17.035Z,80.66
2022-08-26T02:01:43.892Z,81.82
2022-08-26T02:04:21.844Z,80.74
2022-08-26T02:06:48.802Z,81.38
2022-08-26T02:09:16.846Z,81.17
2022-08-26T02:11:44.687Z,80.95
2022-08-26T02:14:21.319Z,81.35
2022-08-26T02:16:50.290Z,81.78
2022-08-26T02:19:19.925Z,82.11
2022-08-26T02:21:50.983Z,82.43
2022-08-26T02:24:23.038Z,81.79
2022-08-26T02:26:50.218Z,82.92
2022-08-26T02:29:24.974Z,81.71
2022-08-26T02:31:52.797Z,81.93
2022-08-26T02:34:23.465Z,83.00
2022-08-26T02:36:50.895Z,82.25
2022-08-26T02:39:22.216Z,83.19
2022-08-26T02:41:49.197Z,81.94
2022-08-26T02:44:15.930Z,81.52
2022-08-26T02:46:46.821Z,81.18
2022-08-26T02:49:14.981Z,80.78
2022-08-26T02:51:41.602Z,81.06
2022-08-26T02:54:09.805Z,81.30
2022-08-26T02:56:36.470Z,81.84
2022-08-26T02:59:03.086Z,82.24
2022-08-26T03:01:32.857Z,81.71
2022-08-26T03:04:01.215Z,81.55
2022-08-26T03:06:27.925Z,81.87
2022-08-26T03:08:55.881Z,81.20
2022-08-26T03:11:22.749Z,81.80
2022-08-26T03:13:52.713Z,81.59
2022-08-26T03:16:20.720Z,81.14
2022-08-26T03:18:52.262Z,80.86
2022-08-26T03:21:19.512Z,81.51
2022-08-26T03:23:46.185Z,82.19
2022-08-26T03:26:14.387Z,81.96
2022-08-26T03:29:01.017Z,81.09
2022-08-26T03:31:29.279Z,81.55
2022-08-26T03:33:59.818Z,81.57
2022-08-26T03:36:26.960Z,80.97
2022-08-26T03:38:53.644Z,81.70
2022-08-26T03:41:21.368Z,81.19
2022-08-26T03:43:50.772Z,81.51
2022-08-26T03:46:18.664Z,81.30
2022-08-26T03:48:45.804Z,81.23
2022-08-26T03:51:18.265Z,81.53
2022-08-26T03:53:47.321Z,81.30
2022-08-26T03:56:15.322Z,80.46
2022-08-26T03:58:44.719Z,80.64
2022-08-26T04:01:23.467Z,81.51
2022-08-26T04:04:00.978Z,81.48
2022-08-26T04:06:39.033Z,81.58
2022-08-26T04:09:08.662Z,81.84
2022-08-26T04:11:38.384Z,80.87
2022-08-26T04:14:08.658Z,82.70
2022-08-26T04:16:35.399Z,82.11
2022-08-26T04:19:02.268Z,82.07
2022-08-26T04:21:29.005Z,82.00
2022-08-26T04:23:56.081Z,80.80
2022-08-26T04:26:25.301Z,81.12
2022-08-26T04:28:54.366Z,81.13
2022-08-26T04:31:21.102Z,81.03
2022-08-26T04:33:49.997Z,81.46
2022-08-26T04:36:17.688Z,81.42
2022-08-26T04:38:47.256Z,81.87
2022-08-26T04:41:15.278Z,81.77
2022-08-26T04:43:44.413Z,82.05
2022-08-26T04:46:12.843Z,81.89
2022-08-26T04:48:41.124Z,81.32
2022-08-26T04:51:09.184Z,81.61
2022-08-26T04:53:36.976Z,81.82
2022-08-26T04:56:04.069Z,82.04
2022-08-26T04:58:31.587Z,81.98
2022-08-26T05:00:58.566Z,81.35
2022-08-26T05:03:27.246Z,80.97
2022-08-26T05:05:57.780Z,81.38
2022-08-26T05:08:24.714Z,80.03
2022-08-26T05:10:54.745Z,80.08
2022-08-26T05:13:24.851Z,80.98
2022-08-26T05:15:51.719Z,79.68
2022-08-26T05:18:21.343Z,80.23
2022-08-26T05:20:53.919Z,79.85
2022-08-26T05:23:23.066Z,79.67
2022-08-26T05:25:54.614Z,79.22
2022-08-26T05:28:23.937Z,78.21
2022-08-26T05:30:51.285Z,77.79
2022-08-26T05:33:18.521Z,77.00
2022-08-26T05:35:45.757Z,76.37
2022-08-26T05:38:15.632Z,77.31
2022-08-26T05:40:44.790Z,76.38
2022-08-26T05:43:13.398Z,76.86
2022-08-26T05:45:46.000Z,76.04
2022-08-26T05:48:14.153Z,76.89
2022-08-26T05:50:43.353Z,76.47
2022-08-26T05:53:11.499Z,76.13
2022-08-26T05:55:44.562Z,75.06
2022-08-26T05:58:12.034Z,75.09
2022-08-26T06:00:39.489Z,74.37
2022-08-26T06:03:08.747Z,74.45
2022-08-26T06:05:39.557Z,75.51
2022-08-26T06:08:13.931Z,75.93
2022-08-26T06:11:05.795Z,74.56
2022-08-26T06:13:33.578Z,74.07
2022-08-26T06:16:05.275Z,74.46
2022-08-26T06:18:36.420Z,73.58
2022-08-26T06:21:28.091Z,73.46
2022-08-26T06:24:15.834Z,73.19
2022-08-26T06:26:50.461Z,72.31
2022-08-26T06:29:23.642Z,72.82
2022-08-26T06:31:52.414Z,73.39
2022-08-26T06:34:19.236Z,73.02
2022-08-26T06:36:47.235Z,72.01
2022-08-26T06:39:15.405Z,72.70
2022-08-26T06:41:44.918Z,73.18
2022-08-26T06:44:13.291Z,71.85
2022-08-26T06:46:41.074Z,72.24
2022-08-26T06:49:08.040Z,71.76
2022-08-26T06:51:37.182Z,71.61
2022-08-26T06:54:05.536Z,72.86
2022-08-26T06:56:40.216Z,71.95
2022-08-26T06:59:08.263Z,72.36
2022-08-26T07:01:38.515Z,72.77
2022-08-26T07:04:10.426Z,72.00
2022-08-26T07:06:40.302Z,72.73
2022-08-26T07:09:09.985Z,72.50
2022-08-26T07:11:38.448Z,71.71
2022-08-26T07:14:06.167Z,71.24
2022-08-26T07:16:32.918Z,71.09
2022-08-26T07:18:59.523Z,71.62
2022-08-26T07:21:28.302Z,72.14
2022-08-26T07:24:00.056Z,74.28
2022-08-26T07:26:30.199Z,72.72
2022-08-26T07:28:57.830Z,70.10
2022-08-26T07:31:28.817Z,70.68
2022-08-26T07:33:56.977Z,69.40
2022-08-26T07:36:24.493Z,68.65
2022-08-26T07:38:52.060Z,67.86
2022-08-26T07:41:20.385Z,66.81
2022-08-26T07:43:46.950Z,64.75
2022-08-26T07:46:27.143Z,64.13
2022-08-26T07:48:56.549Z,63.97
2022-08-26T07:51:23.327Z,63.64
2022-08-26T07:53:52.378Z,63.10
2022-08-26T07:56:20.319Z,63.53
2022-08-26T07:58:51.377Z,61.93
2022-08-26T08:01:23.789Z,62.58
2022-08-26T08:03:51.762Z,61.45
2022-08-26T08:06:19.790Z,61.28
2022-08-26T08:08:46.360Z,61.75
2022-08-26T08:11:14.182Z,61.93
2022-08-26T08:13:40.715Z,64.21
2022-08-26T08:16:12.534Z,66.72
2022-08-26T08:18:40.439Z,64.84
2022-08-26T08:21:23.914Z,64.49
2022-08-26T08:23:55.487Z,63.62
2022-08-26T08:26:23.447Z,61.90
2022-08-26T08:28:50.652Z,59.93
2022-08-26T08:31:54.376Z,61.74
2022-08-26T08:34:12.344Z,59.01
2022-08-26T08:36:38.832Z,58.42
2022-08-26T08:39:06.472Z,58.51
2022-08-26T08:41:45.267Z,56.05
2022-08-26T08:44:15.958Z,58.06
2022-08-26T08:46:42.722Z,56.86
2022-08-26T08:49:10.620Z,58.58
2022-08-26T08:51:48.133Z,59.55
2022-08-26T08:54:14.773Z,59.42
2022-08-26T08:56:54.974Z,58.24
2022-08-26T08:59:25.931Z,59.35
2022-08-26T09:01:53.948Z,59.09
2022-08-26T09:04:39.432Z,61.13
2022-08-26T09:07:12.154Z,61.19
2022-08-26T09:09:42.136Z,60.48
2022-08-26T09:12:20.666Z,59.14
2022-08-26T09:15:05.370Z,57.69
2022-08-26T09:17:57.418Z,57.37
2022-08-26T09:20:33.104Z,56.10
2022-08-26T09:22:59.598Z,55.50
2022-08-26T09:25:26.411Z,54.81
2022-08-26T09:27:53.716Z,54.37
2022-08-26T09:30:34.838Z,55.62
2022-08-26T09:33:01.419Z,57.11
2022-08-26T09:35:32.402Z,55.34
2022-08-26T09:37:59.516Z,56.81
2022-08-26T09:40:34.652Z,55.55
2022-08-26T09:43:13.749Z,56.06
2022-08-26T09:45:50.166Z,57.03
2022-08-26T09:48:44.054Z,57.21
2022-08-26T09:51:31.575Z,53.80
2022-08-26T09:54:00.057Z,54.80
2022-08-26T09:56:32.721Z,55.34
2022-08-26T09:59:00.636Z,55.57
2022-08-26T10:01:35.370Z,55.39
2022-08-26T10:04:14.715Z,56.96
2022-08-26T10:07:03.832Z,56.45
2022-08-26T10:09:35.003Z,57.16
2022-08-26T10:12:11.085Z,56.84
2022-08-26T10:14:48.533Z,56.53
2022-08-26T10:17:37.074Z,57.18
2022-08-26T10:20:23.364Z,56.03
2022-08-26T10:23:01.205Z,55.49
2022-08-26T10:25:43.055Z,55.14
2022-08-26T10:28:34.317Z,54.51
2022-08-26T10:31:05.342Z,54.80
2022-08-26T10:33:31.926Z,55.11
2022-08-26T10:36:01.105Z,54.12
2022-08-26T10:38:36.494Z,53.86
2022-08-26T10:41:09.786Z,54.01
2022-08-26T10:43:41.758Z,53.29
2022-08-26T10:46:18.441Z,53.02
2022-08-26T10:48:53.446Z,51.48
2022-08-26T10:51:25.144Z,52.37
2022-08-26T10:54:26.169Z,49.42
2022-08-26T10:57:01.521Z,46.91
2022-08-26T10:59:36.114Z,47.55
2022-08-26T11:02:33.041Z,47.12
2022-08-26T11:05:03.226Z,46.82
2022-08-26T11:07:45.450Z,47.91
2022-08-26T11:10:21.269Z,47.89
2022-08-26T11:12:49.416Z,48.48
2022-08-26T11:15:24.636Z,48.53
2022-08-26T11:17:51.416Z,47.53
2022-08-26T11:20:46.049Z,44.97
2022-08-26T11:23:13.695Z,44.92
2022-08-26T11:26:01.577Z,45.77
2022-08-26T11:28:35.572Z,47.07
2022-08-26T11:31:03.302Z,50.38
2022-08-26T11:33:43.924Z,49.95
2022-08-26T11:36:12.525Z,50.06
2022-08-26T11:38:42.743Z,52.23
2022-08-26T11:41:12.248Z,52.98
2022-08-26T11:43:39.710Z,52.98
2022-08-26T11:46:10.533Z,52.82
2022-08-26T11:48:39.982Z,52.46
2022-08-26T11:51:20.330Z,54.99
2022-08-26T11:53:47.196Z,54.74
2022-08-26T11:56:33.248Z,55.30
2022-08-26T11:59:01.484Z,56.13
2022-08-26T12:01:38.280Z,53.95
2022-08-26T12:04:07.542Z,54.05
2022-08-26T12:06:43.410Z,54.88
2022-08-26T12:09:20.435Z,53.64
2022-08-26T12:11:47.021Z,54.48
2022-08-26T12:14:24.313Z,56.26
2022-08-26T12:16:51.879Z,55.97
2022-08-26T12:19:29.064Z,52.50
2022-08-26T12:22:06.608Z,52.00
2022-08-26T12:24:33.188Z,51.14
2022-08-26T12:27:22.332Z,49.24
2022-08-26T12:30:04.292Z,50.64
2022-08-26T12:32:35.024Z,51.17
2022-08-26T12:37:35.458Z,52.73
2022-08-26T12:40:27.038Z,53.76
2022-08-26T12:42:53.649Z,59.88
2022-08-26T12:45:29.038Z,63.22
2022-08-26T12:47:59.410Z,66.99
2022-08-26T12:50:31.881Z,66.01
2022-08-26T12:53:00.527Z,66.75
2022-08-26T12:55:42.912Z,75.96
2022-08-26T12:58:15.493Z,85.10
2022-08-26T13:00:45.885Z,89.99
2022-08-26T13:03:37.283Z,93.79
2022-08-26T13:06:30.001Z,95.78
2022-08-26T13:09:25.571Z,95.34
2022-08-26T13:11:54.999Z,91.92
2022-08-26T13:14:24.900Z,92.42
2022-08-26T13:16:52.762Z,87.12
2022-08-26T13:19:22.078Z,81.69
2022-08-26T13:21:52.873Z,79.37
2022-08-26T13:24:34.518Z,80.72
2022-08-26T13:27:01.661Z,83.05
2022-08-26T13:29:28.269Z,82.66
2022-08-26T13:31:55.895Z,83.83
2022-08-26T13:34:24.354Z,81.96
2022-08-26T13:36:54.051Z,81.68
2022-08-26T13:39:21.528Z,79.04
2022-08-26T13:41:48.248Z,76.54
2022-08-26T13:44:14.933Z,76.07
2022-08-26T13:46:41.890Z,75.52
2022-08-26T13:49:09.190Z,75.84
2022-08-26T13:51:36.360Z,74.27
2022-08-26T13:54:02.959Z,73.02
2022-08-26T13:56:29.883Z,73.93
2022-08-26T13:58:57.578Z,73.22
2022-08-26T14:01:24.365Z,72.49
2022-08-26T14:03:51.141Z,73.85
2022-08-26T14:06:18.226Z,73.83
2022-08-26T14:08:45.369Z,73.86
2022-08-26T14:11:12.051Z,74.78
2022-08-26T14:13:39.281Z,75.26
2022-08-26T14:16:09.970Z,75.70
2022-08-26T14:18:41.884Z,75.82
2022-08-26T14:21:09.126Z,76.37
2022-08-26T14:23:35.581Z,76.51
2022-08-26T14:26:04.007Z,75.62
2022-08-26T14:28:30.490Z,75.64
2022-08-26T14:30:58.283Z,75.11
2022-08-26T14:33:27.749Z,74.12
2022-08-26T15:11:40.889Z,66.55
2022-08-26T17:04:49.254Z,75.92
2022-08-26T17:07:16.962Z,74.75
2022-08-26T17:09:43.491Z,74.91
2022-08-26T17:12:10.035Z,74.33
2022-08-26T17:14:37.011Z,74.39
2022-08-26T17:17:04.072Z,75.40
2022-08-26T17:19:30.583Z,75.21
2022-08-26T17:22:10.722Z,75.25
2022-08-26T17:24:37.979Z,79.61
2022-08-26T17:27:04.864Z,82.17
2022-08-26T17:29:31.443Z,83.74
2022-08-26T17:31:57.934Z,84.65
2022-08-26T17:34:24.576Z,84.03
2022-08-26T17:36:51.914Z,83.67
2022-08-26T17:39:20.814Z,82.99
2022-08-26T17:41:47.322Z,80.62
2022-08-26T17:44:15.363Z,81.34
2022-08-26T17:46:42.037Z,79.94
2022-08-26T17:49:08.715Z,79.41
2022-08-26T17:51:35.302Z,79.90
2022-08-26T17:54:01.778Z,79.57
2022-08-26T17:56:29.366Z,80.39
2022-08-26T17:59:02.325Z,80.44
2022-08-26T18:01:30.795Z,80.99
2022-08-26T18:04:00.390Z,80.43
2022-08-26T18:06:28.446Z,80.83
2022-08-26T18:08:55.467Z,80.94
2022-08-26T18:11:25.498Z,81.12
2022-08-26T18:13:52.121Z,79.80
2022-08-26T18:16:19.730Z,80.90
2022-08-26T18:18:47.699Z,80.19
2022-08-26T18:21:23.030Z,79.83
2022-08-26T18:23:50.531Z,80.88
2022-08-26T18:26:19.501Z,80.50
2022-08-26T18:28:46.172Z,81.38
2022-08-26T18:31:12.812Z,80.18
2022-08-26T18:33:39.349Z,81.35
2022-08-26T18:36:06.058Z,82.53
2022-08-26T18:38:32.836Z,81.44
2022-08-26T18:40:59.415Z,81.97
2022-08-26T18:43:25.955Z,81.54
2022-08-26T18:46:02.147Z,80.81
2022-08-26T18:48:28.679Z,81.01
2022-08-26T18:50:55.422Z,82.23
2022-08-26T18:53:21.989Z,82.72
2022-08-26T18:55:48.504Z,82.82
2022-08-26T18:58:16.411Z,85.39
2022-08-26T19:00:42.971Z,86.56
2022-08-26T19:03:19.102Z,86.09
2022-08-26T19:05:45.853Z,86.80
2022-08-26T19:08:12.544Z,91.21
2022-08-26T19:10:39.620Z,88.84
2022-08-26T19:13:07.362Z,88.54
2022-08-26T19:15:44.062Z,89.07
2022-08-26T19:18:12.289Z,89.43
2022-08-26T19:20:45.970Z,89.10
2022-08-26T19:23:30.452Z,88.83
2022-08-26T19:25:58.407Z,88.71
2022-08-26T19:28:24.967Z,88.13
2022-08-26T19:30:53.340Z,88.87
2022-08-26T19:33:20.095Z,89.74
2022-08-26T19:35:46.627Z,88.88
2022-08-26T19:38:13.759Z,89.27
2022-08-26T19:40:40.625Z,89.60
2022-08-26T19:43:07.323Z,89.49
2022-08-26T19:45:34.712Z,87.87
2022-08-26T19:48:01.731Z,88.77
2022-08-26T19:50:30.255Z,87.76
2022-08-26T19:52:56.788Z,89.08
2022-08-26T19:55:23.865Z,88.34
2022-08-26T19:57:52.294Z,89.43
2022-08-26T20:00:22.189Z,88.16
2022-08-26T20:02:48.824Z,90.05
2022-08-26T20:05:16.459Z,90.29
2022-08-26T20:07:43.042Z,88.97
2022-08-26T20:10:12.976Z,90.18
2022-08-26T20:12:41.681Z,90.78
2022-08-26T20:15:10.721Z,92.05
2022-08-26T20:17:37.483Z,90.52
2022-08-26T20:20:44.702Z,89.37
2022-08-26T20:23:11.251Z,89.55
2022-08-26T20:25:38.038Z,90.72
2022-08-26T20:28:06.294Z,89.88
2022-08-26T20:30:32.975Z,89.08
2022-08-26T20:32:59.509Z,89.92
2022-08-26T20:35:26.257Z,90.59
2022-08-26T20:37:52.785Z,90.92
2022-08-26T20:40:19.429Z,91.17
2022-08-26T20:42:46.122Z,89.72
2022-08-26T20:45:12.745Z,91.01
2022-08-26T20:47:39.510Z,90.23
2022-08-26T20:50:08.163Z,90.31
2022-08-26T20:52:35.900Z,90.07
2022-08-26T20:55:03.013Z,90.61
2022-08-26T20:57:30.148Z,90.02
2022-08-26T20:59:56.714Z,91.72
2022-08-26T21:02:24.672Z,91.03
2022-08-26T21:04:51.209Z,90.62
2022-08-26T21:07:17.889Z,91.58
2022-08-26T21:09:44.439Z,93.35
2022-08-26T21:12:10.950Z,95.19
2022-08-26T21:14:40.865Z,94.40
2022-08-26T21:20:55.571Z,96.55
2022-08-26T21:23:24.505Z,96.52
2022-08-26T21:25:53.644Z,96.13
2022-08-26T21:28:20.616Z,94.19
2022-08-26T21:30:48.251Z,95.22
2022-08-26T21:33:14.741Z,96.27
2022-08-26T21:35:41.267Z,95.69
2022-08-26T21:38:07.858Z,95.01
2022-08-26T21:40:34.489Z,94.25
2022-08-26T21:43:01.014Z,95.49
2022-08-26T21:45:27.864Z,95.70
2022-08-26T21:47:54.599Z,96.60
2022-08-26T21:50:21.728Z,97.66
2022-08-26T21:52:48.317Z,95.15
2022-08-26T21:55:14.975Z,95.33
2022-08-26T21:57:41.527Z,97.63
2022-08-26T22:00:11.901Z,97.11
2022-08-26T22:02:38.591Z,97.33
2022-08-26T22:05:05.648Z,95.53
2022-08-26T22:07:32.554Z,95.74
2022-08-26T22:09:59.227Z,98.15
2022-08-26T22:12:25.785Z,98.19
2022-08-26T22:14:52.719Z,98.59
2022-08-26T22:17:19.257Z,96.72
2022-08-26T22:19:46.719Z,97.04
2022-08-26T22:22:14.909Z,95.81
2022-08-26T22:24:43.244Z,97.38
2022-08-26T22:27:11.934Z,97.37
2022-08-26T22:29:38.716Z,96.97
2022-08-26T22:32:05.450Z,97.66
2022-08-26T22:34:33.353Z,96.85
2022-08-26T22:36:59.894Z,96.78
2022-08-26T22:39:26.733Z,97.03
2022-08-26T22:41:54.071Z,95.36
2022-08-26T22:44:21.421Z,94.42
2022-08-26T22:46:48.890Z,95.32
2022-08-26T22:49:16.495Z,96.22
2022-08-26T22:51:44.526Z,94.34
2022-08-26T22:54:11.098Z,95.43
2022-08-26T22:56:38.485Z,97.01
2022-08-26T22:59:07.781Z,96.62
2022-08-26T23:01:47.289Z,96.66
2022-08-26T23:04:14.231Z,97.07
2022-08-26T23:06:47.357Z,97.39
2022-08-26T23:09:17.105Z,95.70
2022-08-26T23:11:46.544Z,96.65
2022-08-26T23:14:13.955Z,96.43
2022-08-26T23:16:42.226Z,95.79
2022-08-26T23:19:12.037Z,97.69
2022-08-26T23:21:40.129Z,96.17
2022-08-26T23:24:08.539Z,95.52
2022-08-26T23:26:36.415Z,95.13
2022-08-26T23:29:04.919Z,95.02
2022-08-26T23:31:31.582Z,95.98
2022-08-26T23:34:16.795Z,95.80
2022-08-26T23:36:44.131Z,94.66
2022-08-26T23:39:14.104Z,96.28
2022-08-26T23:41:40.941Z,94.82
2022-08-26T23:44:07.518Z,95.72
2022-08-26T23:46:34.643Z,96.27
2022-08-26T23:49:01.721Z,94.65
2022-08-26T23:51:46.755Z,94.55
2022-08-26T23:54:14.826Z,95.42
2022-08-26T23:56:41.731Z,96.04
2022-08-26T23:59:08.410Z,94.31
